Archival Weather

Rochelle Muni/Koritz Fld

Rochelle, Illinois (KRPJ)

Report from: Sunday, February 5, 2023 1:15 AM CST
Current time: Monday, March 4, 2024 6:24 PM CST

Current weather – Weather history – Daily summaries
Weather forecast

Temperature1.6°C (34.9°F)
Wind chill-4.3°C (24.2°F)
Dew point-1.0°C (30.2°F)
Winds 16 kts (8.2 m/s, 18.4 mph) South-Southwest (210°)
Visibility10 mi. (16.1 km)
Clouds Sky clear
Altimeter29.85 in.Hg (1011 mB)
Relative humidity83 %
Density altitude-1,463 ft. (-446 m)
Remarks Fully automated report
Automated weather observing station with precipitation discriminator
Lightning detection system not operating
Flight conditions Visual Meteorological Conditions
Raw dataKRPJ 050715Z AUTO 21016KT 10SM CLR 02/M01 A2985 RMK AO2 T00161010 TSNO
An error has occurred. This application may no longer respond until reloaded. Reload 🗙